DICEM MMUN-MUHA
Flight info
| Callsign | DICEM |
|---|---|
| Flight time | N/A |
| Altitude | 9000 |
| Route | MMUN NUDA1A NUDAL DCT KALNO DCT VETSI VETS2A MUHA |
| Aircraft | DA42/L-SBDGRY/L |
Departure
| Time | 2026-04-30 22:51 |
|---|---|
| Airport | Cancún International Airport (MMUN) |
Arrival
| Time | N/A |
|---|---|
| Airport | José Martí International Airport (MUHA) |
| Time | Latitude | Longitude | Altitude | Speed | Heading |
|---|---|---|---|---|---|
| 2026-04-30 22:29 | 21.03355 | -86.86541 | 12 ft | 0 kts | 125° |
| 2026-04-30 22:45 | 21.03186 | -86.86529 | 12 ft | 11 kts | 217° |
| 2026-04-30 22:45 | 21.03216 | -86.86681 | 12 ft | 15 kts | 303° |
| 2026-04-30 22:46 | 21.03339 | -86.86889 | 13 ft | 18 kts | 304° |
| 2026-04-30 22:47 | 21.03647 | -86.87375 | 15 ft | 20 kts | 305° |
| 2026-04-30 22:47 | 21.03807 | -86.87635 | 16 ft | 21 kts | 305° |
| 2026-04-30 22:48 | 21.03973 | -86.87902 | 16 ft | 22 kts | 305° |
| 2026-04-30 22:49 | 21.04193 | -86.88282 | 18 ft | 9 kts | 256° |
| 2026-04-30 22:49 | 21.04176 | -86.88310 | 18 ft | 0 kts | 210° |
| 2026-04-30 22:50 | 21.03901 | -86.88081 | 16 ft | 62 kts | 123° |
| 2026-04-30 22:51 | 21.03395 | -86.87108 | 323 ft | 75 kts | 119° |
| 2026-04-30 22:51 | 21.02985 | -86.86178 | 774 ft | 64 kts | 121° |
| 2026-04-30 22:52 | 21.02789 | -86.85765 | 984 ft | 60 kts | 120° |
| 2026-04-30 22:52 | 21.02581 | -86.84888 | 1409 ft | 69 kts | 114° |
| 2026-04-30 22:53 | 21.01976 | -86.83908 | 1800 ft | 90 kts | 127° |
| 2026-04-30 22:53 | 21.01204 | -86.82659 | 2158 ft | 110 kts | 124° |
| 2026-04-30 22:53 | 21.00792 | -86.81932 | 2335 ft | 118 kts | 123° |
| 2026-04-30 22:54 | 20.99928 | -86.80352 | 2723 ft | 124 kts | 122° |
| 2026-04-30 22:55 | 20.98714 | -86.78091 | 3581 ft | 110 kts | 124° |
| 2026-04-30 22:55 | 20.97964 | -86.76700 | 4157 ft | 107 kts | 124° |
| 2026-04-30 22:56 | 20.97222 | -86.75327 | 4755 ft | 106 kts | 125° |
| 2026-04-30 22:56 | 20.96101 | -86.73247 | 5612 ft | 109 kts | 123° |
| 2026-04-30 22:57 | 20.96031 | -86.71630 | 6194 ft | 115 kts | 84° |
| 2026-04-30 22:57 | 20.96349 | -86.69951 | 6753 ft | 115 kts | 83° |
| 2026-04-30 22:58 | 20.96669 | -86.68253 | 7319 ft | 116 kts | 83° |
| 2026-04-30 22:59 | 20.97141 | -86.65738 | 8178 ft | 115 kts | 81° |
| 2026-04-30 22:59 | 20.97612 | -86.63233 | 9018 ft | 119 kts | 80° |